createdAt,value
2017-10-13T00:00:07.146Z,13.97
2017-10-13T00:00:33.275Z,13.99
2017-10-13T00:00:59.414Z,13.9
2017-10-13T00:01:25.536Z,13.96
2017-10-13T00:01:51.663Z,13.89
2017-10-13T00:02:17.793Z,13.87
2017-10-13T00:02:43.925Z,13.97
2017-10-13T00:03:10.054Z,13.99
2017-10-13T00:03:36.184Z,14
2017-10-13T00:04:02.313Z,13.92
2017-10-13T00:04:28.487Z,13.87
2017-10-13T00:04:54.605Z,13.9
2017-10-13T00:05:20.737Z,13.86
2017-10-13T00:05:46.866Z,13.77
2017-10-13T00:06:13.019Z,13.77
2017-10-13T00:06:39.149Z,13.78
2017-10-13T00:07:05.316Z,13.86
2017-10-13T00:07:31.435Z,13.77
2017-10-13T00:07:57.568Z,13.68
2017-10-13T00:08:23.695Z,13.71
2017-10-13T00:08:49.838Z,13.72
2017-10-13T00:09:15.954Z,13.67
2017-10-13T00:09:42.083Z,13.71
2017-10-13T00:10:08.235Z,13.72
2017-10-13T00:10:34.366Z,13.74
2017-10-13T00:11:00.515Z,13.72
2017-10-13T00:11:26.642Z,13.71
2017-10-13T00:11:52.771Z,13.7
2017-10-13T00:12:18.900Z,13.74
2017-10-13T00:12:45.030Z,13.57
2017-10-13T00:13:11.185Z,13.6
2017-10-13T00:13:37.323Z,13.6
2017-10-13T00:14:03.460Z,13.52
2017-10-13T00:14:29.588Z,13.49
2017-10-13T00:14:55.761Z,13.47
2017-10-13T00:15:21.892Z,13.52
2017-10-13T00:15:48.022Z,13.6
2017-10-13T00:16:14.153Z,13.39
2017-10-13T00:16:40.289Z,13.39
2017-10-13T00:17:06.422Z,13.53
2017-10-13T00:17:32.544Z,13.46
2017-10-13T00:17:58.673Z,13.44
2017-10-13T00:18:24.803Z,13.42
2017-10-13T00:18:50.933Z,13.28
2017-10-13T00:19:17.061Z,13.35
2017-10-13T00:19:43.191Z,13.38
2017-10-13T00:20:09.320Z,13.3
2017-10-13T00:20:35.450Z,13.39
2017-10-13T00:21:01.582Z,13.37
2017-10-13T00:21:27.709Z,13.37
2017-10-13T00:21:53.838Z,13.39
2017-10-13T00:22:19.969Z,13.38
2017-10-13T00:22:46.098Z,13.39
2017-10-13T00:23:12.227Z,13.38
2017-10-13T00:23:38.396Z,13.41
2017-10-13T00:24:04.504Z,13.33
2017-10-13T00:24:30.630Z,13.39
2017-10-13T00:24:56.760Z,13.38
2017-10-13T00:25:22.889Z,13.46
2017-10-13T00:25:49.030Z,13.31
2017-10-13T00:26:15.158Z,13.33
2017-10-13T00:26:41.288Z,13.25
2017-10-13T00:27:07.437Z,13.31
2017-10-13T00:27:33.556Z,13.35
2017-10-13T00:27:59.714Z,13.39
2017-10-13T00:28:25.839Z,13.44
2017-10-13T00:28:51.978Z,13.46
2017-10-13T00:29:18.130Z,13.46
2017-10-13T00:29:44.258Z,13.35
2017-10-13T00:30:10.408Z,13.5
2017-10-13T00:30:36.548Z,13.52
2017-10-13T00:31:02.667Z,13.41
2017-10-13T00:31:28.799Z,13.46
2017-10-13T00:31:54.947Z,13.44
2017-10-13T00:32:21.075Z,13.46
2017-10-13T00:32:47.205Z,13.44
2017-10-13T00:33:13.333Z,13.33
2017-10-13T00:33:39.467Z,13.39
2017-10-13T00:34:05.596Z,13.3
2017-10-13T00:34:31.722Z,13.41
2017-10-13T00:34:57.851Z,13.39
2017-10-13T00:35:23.983Z,13.35
2017-10-13T00:35:50.109Z,13.25
2017-10-13T00:36:16.239Z,13.27
2017-10-13T00:36:42.373Z,13.25
2017-10-13T00:37:08.499Z,13.25
2017-10-13T00:37:34.630Z,13.25
2017-10-13T00:38:00.758Z,13.3
2017-10-13T00:38:26.898Z,13.18
2017-10-13T00:38:53.027Z,13.2
2017-10-13T00:39:19.154Z,13.19
2017-10-13T00:39:45.284Z,13.15
2017-10-13T00:40:11.414Z,13.19
2017-10-13T00:40:37.543Z,13.18
2017-10-13T00:41:03.676Z,13.09
2017-10-13T00:41:29.811Z,13.13
2017-10-13T00:41:55.943Z,13.11
2017-10-13T00:42:22.073Z,13.19
2017-10-13T00:42:48.218Z,13.2
2017-10-13T00:43:14.349Z,13.16
2017-10-13T00:43:40.478Z,13.2
2017-10-13T00:44:06.609Z,13.18
2017-10-13T00:44:32.740Z,13.19
2017-10-13T00:44:58.867Z,13.23
2017-10-13T00:45:25.022Z,13.19
2017-10-13T00:45:51.153Z,13.13
2017-10-13T00:46:17.281Z,13.08
2017-10-13T00:46:43.413Z,13.13
2017-10-13T00:47:09.566Z,13.11
2017-10-13T00:47:35.692Z,13.12
2017-10-13T00:48:01.843Z,13.11
2017-10-13T00:48:27.971Z,13.12
2017-10-13T00:48:54.100Z,13.16
2017-10-13T00:49:20.251Z,13.19
2017-10-13T00:49:46.378Z,13.15
2017-10-13T00:50:12.511Z,13.11
2017-10-13T00:50:38.638Z,13.09
2017-10-13T00:51:04.766Z,13.12
2017-10-13T00:51:30.896Z,13.08
2017-10-13T00:51:57.025Z,13.04
2017-10-13T00:52:23.154Z,13
2017-10-13T00:52:49.284Z,13.03
2017-10-13T00:53:15.420Z,12.98
2017-10-13T00:53:41.544Z,12.95
2017-10-13T00:54:07.673Z,12.98
2017-10-13T00:54:33.809Z,13.04
2017-10-13T00:54:59.957Z,13.11
2017-10-13T00:55:26.085Z,12.98
2017-10-13T00:55:52.213Z,13.04
2017-10-13T00:56:18.342Z,13.03
2017-10-13T00:56:44.476Z,13.08
2017-10-13T00:57:10.604Z,13.05
2017-10-13T00:57:36.737Z,13.11
2017-10-13T00:58:02.886Z,13.11
2017-10-13T00:58:29.012Z,12.98
2017-10-13T00:58:55.139Z,12.98
2017-10-13T00:59:21.269Z,12.97
2017-10-13T00:59:47.420Z,12.95
2017-10-13T01:00:13.548Z,12.95
2017-10-13T01:00:39.678Z,13.01
2017-10-13T01:01:05.830Z,13.01
2017-10-13T01:01:31.958Z,12.97
2017-10-13T01:01:58.087Z,12.98
2017-10-13T01:02:24.240Z,12.94
2017-10-13T01:02:50.369Z,13.03
2017-10-13T01:03:16.504Z,12.93
2017-10-13T01:03:42.650Z,12.97
2017-10-13T01:04:08.777Z,13.01
2017-10-13T01:04:34.906Z,12.87
2017-10-13T01:05:01.037Z,12.93
2017-10-13T01:05:27.166Z,12.97
2017-10-13T01:05:53.294Z,12.93
2017-10-13T01:06:19.446Z,12.95
2017-10-13T01:06:45.575Z,12.97
2017-10-13T01:07:11.704Z,12.97
2017-10-13T01:07:37.833Z,12.95
2017-10-13T01:08:03.963Z,12.95
2017-10-13T01:08:30.093Z,12.97
2017-10-13T01:08:56.249Z,12.97
2017-10-13T01:09:22.415Z,13
2017-10-13T01:09:48.545Z,12.94
2017-10-13T01:10:14.674Z,12.94
2017-10-13T01:10:40.801Z,12.95
2017-10-13T01:11:06.937Z,12.94
2017-10-13T01:11:33.058Z,12.93
2017-10-13T01:11:59.189Z,12.9
2017-10-13T01:12:25.317Z,12.93
2017-10-13T01:12:51.446Z,12.87
2017-10-13T01:13:17.576Z,12.97
2017-10-13T01:13:43.705Z,12.97
2017-10-13T01:14:09.835Z,12.91
2017-10-13T01:14:35.965Z,12.97
2017-10-13T01:15:02.094Z,13
2017-10-13T01:15:28.223Z,12.97
2017-10-13T01:15:54.353Z,13
2017-10-13T01:16:20.483Z,13.04
2017-10-13T01:16:46.610Z,12.95
2017-10-13T01:17:12.740Z,12.97
2017-10-13T01:17:38.870Z,12.9
2017-10-13T01:18:05.000Z,13.03
2017-10-13T01:18:31.128Z,13.09
2017-10-13T01:18:57.258Z,12.95
2017-10-13T01:19:23.387Z,12.94
2017-10-13T01:19:49.516Z,12.97
2017-10-13T01:20:15.647Z,13.01
2017-10-13T01:20:41.778Z,12.95
2017-10-13T01:21:07.905Z,13
2017-10-13T01:21:34.035Z,12.93
2017-10-13T01:22:00.163Z,13.03
2017-10-13T01:22:26.291Z,13.09
2017-10-13T01:22:52.421Z,13.09
2017-10-13T01:23:18.550Z,13.11
2017-10-13T01:23:44.680Z,13.12
2017-10-13T01:24:10.813Z,13.15
2017-10-13T01:24:36.963Z,13.18
2017-10-13T01:25:03.114Z,13.16
2017-10-13T01:25:29.241Z,13.22
2017-10-13T01:25:55.370Z,13.2
2017-10-13T01:26:21.499Z,13.16
2017-10-13T01:26:47.628Z,13.3
2017-10-13T01:27:13.781Z,13.2
2017-10-13T01:27:39.911Z,13.09
2017-10-13T01:28:06.040Z,13.23
2017-10-13T01:28:32.170Z,13.22
2017-10-13T01:28:58.300Z,13.22
2017-10-13T01:29:24.429Z,13.25
2017-10-13T01:29:50.559Z,13.27
2017-10-13T01:30:16.688Z,13.3
2017-10-13T01:30:42.816Z,13.28
2017-10-13T01:31:08.946Z,13.22
2017-10-13T01:31:35.076Z,13.27
2017-10-13T01:32:01.204Z,13.3
2017-10-13T01:32:27.334Z,13.2
2017-10-13T01:32:53.463Z,13.3
2017-10-13T01:33:19.592Z,13.27
2017-10-13T01:33:45.722Z,13.27
2017-10-13T01:34:11.850Z,13.28
2017-10-13T01:34:37.981Z,13.28
2017-10-13T01:35:04.110Z,13.37
2017-10-13T01:35:30.240Z,13.37
2017-10-13T01:35:56.369Z,13.41
2017-10-13T01:36:22.498Z,13.37
2017-10-13T01:36:48.628Z,13.33
2017-10-13T01:37:14.757Z,13.39
2017-10-13T01:37:40.887Z,13.37
2017-10-13T01:38:07.016Z,13.38
2017-10-13T01:38:33.144Z,13.37
2017-10-13T01:38:59.275Z,13.47
2017-10-13T01:39:25.403Z,13.42
2017-10-13T01:39:51.536Z,13.41
2017-10-13T01:40:17.664Z,13.42
2017-10-13T01:40:43.792Z,13.42
2017-10-13T01:41:09.943Z,13.38
2017-10-13T01:41:36.071Z,13.37
2017-10-13T01:42:02.200Z,13.46
2017-10-13T01:42:28.329Z,13.38
2017-10-13T01:42:54.458Z,13.49
2017-10-13T01:43:20.588Z,13.35
2017-10-13T01:43:46.717Z,13.38
2017-10-13T01:44:12.854Z,13.38
2017-10-13T01:44:38.976Z,13.3
2017-10-13T01:45:05.105Z,13.3
2017-10-13T01:45:31.234Z,13.22
2017-10-13T01:45:57.363Z,13.27
2017-10-13T01:46:23.517Z,13.25
2017-10-13T01:46:49.647Z,13.3
2017-10-13T01:47:15.776Z,13.18
2017-10-13T01:47:41.906Z,13.31
2017-10-13T01:48:08.035Z,13.27
2017-10-13T01:48:34.166Z,13.23
2017-10-13T01:49:00.294Z,13.19
2017-10-13T01:49:26.423Z,13.25
2017-10-13T01:49:52.553Z,13.22
2017-10-13T01:50:18.682Z,13.23
2017-10-13T01:50:44.811Z,13.22
2017-10-13T01:51:10.940Z,13.22
2017-10-13T01:51:37.068Z,13.33
2017-10-13T01:52:03.198Z,13.27
2017-10-13T01:52:29.328Z,13.25
2017-10-13T01:52:55.456Z,13.25
2017-10-13T01:53:21.585Z,13.2
2017-10-13T01:53:47.715Z,13.33
2017-10-13T01:54:13.844Z,13.3
2017-10-13T01:54:39.974Z,13.25
2017-10-13T01:55:06.105Z,13.27
2017-10-13T01:55:32.234Z,13.19
2017-10-13T01:55:58.362Z,13.35
2017-10-13T01:56:24.491Z,13.27
2017-10-13T01:56:50.621Z,13.35
2017-10-13T01:57:16.751Z,13.25
2017-10-13T01:57:42.880Z,13.28
2017-10-13T01:58:09.009Z,13.15
2017-10-13T01:58:35.138Z,13.13
2017-10-13T01:59:01.267Z,13.13
2017-10-13T01:59:27.397Z,13.11
2017-10-13T01:59:53.525Z,13.23
2017-10-13T02:00:19.655Z,13.13
2017-10-13T02:00:45.784Z,13.13
2017-10-13T02:01:11.913Z,13.09
2017-10-13T02:01:38.042Z,13.12
2017-10-13T02:02:04.180Z,13.04
2017-10-13T02:02:30.324Z,12.97
2017-10-13T02:02:56.452Z,12.98
2017-10-13T02:03:22.580Z,13
2017-10-13T02:03:48.708Z,12.95
2017-10-13T02:04:14.838Z,12.98
2017-10-13T02:04:40.971Z,12.95
2017-10-13T02:05:07.097Z,12.94
2017-10-13T02:05:33.229Z,12.94
2017-10-13T02:05:59.356Z,12.98
2017-10-13T02:06:25.485Z,12.94
2017-10-13T02:06:51.614Z,12.94
2017-10-13T02:07:17.744Z,12.94
2017-10-13T02:07:43.872Z,12.95
2017-10-13T02:08:10.002Z,12.97
2017-10-13T02:08:36.139Z,13
2017-10-13T02:09:02.263Z,12.95
2017-10-13T02:09:28.388Z,12.94
2017-10-13T02:09:54.520Z,12.93
2017-10-13T02:10:20.648Z,12.87
2017-10-13T02:10:46.777Z,12.91
2017-10-13T02:11:12.911Z,12.87
2017-10-13T02:11:39.037Z,12.95
2017-10-13T02:12:05.165Z,12.83
2017-10-13T02:12:31.296Z,12.9
2017-10-13T02:12:57.426Z,12.82
2017-10-13T02:13:23.578Z,12.83
2017-10-13T02:13:49.707Z,12.82
2017-10-13T02:14:15.836Z,12.82
2017-10-13T02:14:41.965Z,12.82
2017-10-13T02:15:08.094Z,12.7
2017-10-13T02:15:34.225Z,12.75
2017-10-13T02:16:00.353Z,12.73
2017-10-13T02:16:26.489Z,12.72
2017-10-13T02:16:52.612Z,12.75
2017-10-13T02:17:18.742Z,12.76
2017-10-13T02:17:44.870Z,12.67
2017-10-13T02:18:10.999Z,12.78
2017-10-13T02:18:37.129Z,12.62
2017-10-13T02:19:03.283Z,12.7
2017-10-13T02:19:29.407Z,12.7
2017-10-13T02:19:55.535Z,12.78
2017-10-13T02:20:21.665Z,12.72
2017-10-13T02:20:47.795Z,12.75
2017-10-13T02:21:13.923Z,12.86
2017-10-13T02:21:40.053Z,12.8
2017-10-13T02:22:06.183Z,12.82
2017-10-13T02:22:32.313Z,12.83
2017-10-13T02:22:58.440Z,12.8
2017-10-13T02:23:24.568Z,12.83
2017-10-13T02:23:50.698Z,12.79
2017-10-13T02:24:16.828Z,12.79
2017-10-13T02:24:42.962Z,12.93
2017-10-13T02:25:09.088Z,12.86
2017-10-13T02:25:35.218Z,12.97
2017-10-13T02:26:01.346Z,12.9
2017-10-13T02:26:27.474Z,12.94
2017-10-13T02:26:53.621Z,12.95
2017-10-13T02:27:19.733Z,12.94
2017-10-13T02:27:45.862Z,12.95
2017-10-13T02:28:12.001Z,12.95
2017-10-13T02:28:38.121Z,12.86
2017-10-13T02:29:04.250Z,12.97
2017-10-13T02:29:30.380Z,12.94
2017-10-13T02:29:56.509Z,12.93
2017-10-13T02:30:22.664Z,13
2017-10-13T02:30:48.791Z,12.91
2017-10-13T02:31:14.921Z,12.86
2017-10-13T02:31:41.071Z,12.91
2017-10-13T02:32:07.200Z,12.98
2017-10-13T02:32:33.330Z,13.09
2017-10-13T02:32:59.461Z,13.03
2017-10-13T02:33:25.590Z,13.09
2017-10-13T02:33:51.717Z,13.11
2017-10-13T02:34:17.847Z,13.12
2017-10-13T02:34:43.976Z,13.05
2017-10-13T02:35:10.112Z,13.04
2017-10-13T02:35:36.263Z,13.11
2017-10-13T02:36:02.387Z,13.09
2017-10-13T02:36:28.515Z,13.08
2017-10-13T02:36:54.644Z,13.11
2017-10-13T02:37:20.776Z,13.08
2017-10-13T02:37:46.925Z,13.09
2017-10-13T02:38:13.053Z,13.01
2017-10-13T02:38:39.182Z,13.11
2017-10-13T02:39:05.309Z,13.11
2017-10-13T02:39:31.439Z,13.05
2017-10-13T02:39:57.591Z,13.05
2017-10-13T02:40:23.721Z,13.03
2017-10-13T02:40:49.850Z,13.04
2017-10-13T02:41:15.980Z,12.93
2017-10-13T02:41:42.108Z,12.97
2017-10-13T02:42:08.239Z,12.93
2017-10-13T02:42:34.368Z,12.87
2017-10-13T02:43:00.496Z,12.95
2017-10-13T02:43:26.624Z,12.87
2017-10-13T02:43:52.756Z,12.91
2017-10-13T02:44:18.890Z,12.82
2017-10-13T02:44:45.014Z,12.82
2017-10-13T02:45:11.147Z,12.83
2017-10-13T02:45:37.272Z,12.82
2017-10-13T02:46:03.401Z,12.83
2017-10-13T02:46:29.531Z,12.82
2017-10-13T02:46:55.660Z,12.73
2017-10-13T02:47:21.790Z,12.8
2017-10-13T02:47:47.919Z,12.7
2017-10-13T02:48:14.049Z,12.76
2017-10-13T02:48:40.178Z,12.8
2017-10-13T02:49:06.306Z,12.72
2017-10-13T02:49:32.439Z,12.67
2017-10-13T02:49:58.587Z,12.64
2017-10-13T02:50:24.715Z,12.73
2017-10-13T02:50:50.847Z,12.7
2017-10-13T02:51:16.975Z,12.73
2017-10-13T02:51:43.105Z,12.68
2017-10-13T02:52:09.234Z,12.7
2017-10-13T02:52:35.363Z,12.7
2017-10-13T02:53:01.502Z,12.58
2017-10-13T02:53:27.630Z,12.68
2017-10-13T02:53:53.961Z,12.64
2017-10-13T02:54:20.092Z,12.61
2017-10-13T02:54:46.221Z,12.58
2017-10-13T02:55:12.349Z,12.55
2017-10-13T02:55:38.478Z,12.6
2017-10-13T02:56:04.611Z,12.64
2017-10-13T02:56:30.740Z,12.7
2017-10-13T02:56:56.898Z,12.61
2017-10-13T02:57:23.020Z,12.57
2017-10-13T02:57:49.148Z,12.62
2017-10-13T02:58:15.278Z,12.64
2017-10-13T02:58:41.408Z,12.6
2017-10-13T02:59:07.537Z,12.68
2017-10-13T02:59:33.687Z,12.55
2017-10-13T02:59:59.816Z,12.55
2017-10-13T03:00:25.945Z,12.6
2017-10-13T03:00:52.074Z,12.55
2017-10-13T03:01:18.202Z,12.67
2017-10-13T03:01:44.332Z,12.68
2017-10-13T03:02:10.461Z,12.7
2017-10-13T03:02:36.590Z,12.72
2017-10-13T03:03:02.719Z,12.65
2017-10-13T03:03:28.870Z,12.7
2017-10-13T03:03:55.001Z,12.65
2017-10-13T03:04:21.133Z,12.54
2017-10-13T03:04:47.260Z,12.65
2017-10-13T03:05:13.391Z,12.64
2017-10-13T03:05:39.519Z,12.64
2017-10-13T03:06:05.647Z,12.58
2017-10-13T03:06:31.777Z,12.6
2017-10-13T03:06:57.906Z,12.61
2017-10-13T03:07:24.035Z,12.62
2017-10-13T03:07:50.164Z,12.62
2017-10-13T03:08:16.293Z,12.62
2017-10-13T03:08:42.423Z,12.57
2017-10-13T03:09:08.562Z,12.53
2017-10-13T03:09:34.682Z,12.53
2017-10-13T03:10:00.810Z,12.53
2017-10-13T03:10:26.939Z,12.5
2017-10-13T03:10:53.069Z,12.53
2017-10-13T03:11:19.205Z,12.47
2017-10-13T03:11:45.336Z,12.58
2017-10-13T03:12:11.466Z,12.53
2017-10-13T03:12:37.595Z,12.47
2017-10-13T03:13:03.726Z,12.49
2017-10-13T03:13:29.877Z,12.49
2017-10-13T03:13:55.986Z,12.53
2017-10-13T03:14:22.115Z,12.49
2017-10-13T03:14:48.246Z,12.42
2017-10-13T03:15:14.379Z,12.47
2017-10-13T03:15:40.504Z,12.42
2017-10-13T03:16:06.631Z,12.47
2017-10-13T03:16:32.775Z,12.43
2017-10-13T03:16:58.891Z,12.47
2017-10-13T03:17:25.018Z,12.42
2017-10-13T03:17:51.149Z,12.42
2017-10-13T03:18:17.277Z,12.35
2017-10-13T03:21:45.631Z,12.31
2017-10-13T03:22:11.757Z,12.36
2017-10-13T03:22:37.886Z,12.37
2017-10-13T03:23:04.016Z,12.37
2017-10-13T03:23:30.143Z,12.43
2017-10-13T03:23:56.273Z,12.35
2017-10-13T03:24:22.402Z,12.36
2017-10-13T03:24:48.531Z,12.37
2017-10-13T03:25:14.668Z,12.37
2017-10-13T03:25:40.790Z,12.37
2017-10-13T03:26:06.919Z,12.4
2017-10-13T03:26:33.048Z,12.4
2017-10-13T03:26:59.177Z,12.43
2017-10-13T03:27:25.306Z,12.43
2017-10-13T03:27:51.437Z,12.37
2017-10-13T03:28:17.565Z,12.32
2017-10-13T03:28:43.720Z,12.42
2017-10-13T03:29:09.852Z,12.36
2017-10-13T03:29:35.982Z,12.31
2017-10-13T03:30:02.115Z,12.4
2017-10-13T03:30:28.271Z,12.31
2017-10-13T03:30:54.418Z,12.4
2017-10-13T03:31:20.546Z,12.37
2017-10-13T03:31:46.674Z,12.27
2017-10-13T03:32:12.804Z,12.35
2017-10-13T03:32:38.933Z,12.35
2017-10-13T03:33:05.063Z,12.31
2017-10-13T03:33:31.191Z,12.32
2017-10-13T03:33:57.364Z,12.36
2017-10-13T03:34:23.451Z,12.32
2017-10-13T03:34:49.603Z,12.32
2017-10-13T03:35:15.730Z,12.4
2017-10-13T03:35:41.860Z,12.37
2017-10-13T03:36:07.988Z,12.29
2017-10-13T03:36:34.120Z,12.32
2017-10-13T03:37:00.252Z,12.35
2017-10-13T03:37:26.384Z,12.22
2017-10-13T03:37:52.515Z,12.32
2017-10-13T03:38:18.644Z,12.36
2017-10-13T03:38:44.775Z,12.36
2017-10-13T03:39:10.904Z,12.28
2017-10-13T03:39:37.035Z,12.27
2017-10-13T03:40:03.164Z,12.27
2017-10-13T03:40:29.291Z,12.2
2017-10-13T03:40:55.421Z,12.25
2017-10-13T03:41:21.549Z,12.27
2017-10-13T03:41:47.678Z,12.27
2017-10-13T03:42:13.806Z,12.18
2017-10-13T03:42:39.934Z,12.25
2017-10-13T03:43:06.064Z,12.22
2017-10-13T03:43:32.197Z,12.17
2017-10-13T03:43:58.345Z,12.21
2017-10-13T03:44:24.474Z,12.25
2017-10-13T03:44:50.603Z,12.29
2017-10-13T03:45:16.732Z,12.28
2017-10-13T03:45:42.860Z,12.27
2017-10-13T03:46:08.990Z,12.22
2017-10-13T03:46:35.119Z,12.27
2017-10-13T03:47:01.248Z,12.29
2017-10-13T03:47:27.376Z,12.35
2017-10-13T03:47:53.506Z,12.37
2017-10-13T03:48:19.636Z,12.42
2017-10-13T03:48:45.771Z,12.37
2017-10-13T03:49:11.895Z,12.45
2017-10-13T03:50:47.937Z,12.45
2017-10-13T03:51:14.099Z,12.46
2017-10-13T03:51:40.267Z,12.53
2017-10-13T03:52:06.455Z,12.46
2017-10-13T03:52:32.616Z,12.49
2017-10-13T03:52:58.781Z,12.49
2017-10-13T03:53:24.938Z,12.5
2017-10-13T03:53:51.071Z,12.57
2017-10-13T03:54:17.220Z,12.55
2017-10-13T03:54:43.368Z,12.58
2017-10-13T03:55:09.520Z,12.53
2017-10-13T03:55:35.662Z,12.6
2017-10-13T03:56:01.808Z,12.67
2017-10-13T03:56:27.965Z,12.61
2017-10-13T03:56:54.104Z,12.6
2017-10-13T03:57:20.259Z,12.67
2017-10-13T03:57:46.394Z,12.65
2017-10-13T03:58:12.554Z,12.6
2017-10-13T03:58:38.705Z,12.62
2017-10-13T03:59:04.837Z,12.64
2017-10-13T03:59:30.995Z,12.68
2017-10-13T03:59:57.138Z,12.55
2017-10-13T04:00:23.286Z,12.62
2017-10-13T04:00:49.432Z,12.73
2017-10-13T04:01:15.577Z,12.61
2017-10-13T04:01:41.740Z,12.65
2017-10-13T04:02:07.890Z,12.75
2017-10-13T04:02:34.033Z,12.73
2017-10-13T04:03:00.186Z,12.65
2017-10-13T04:03:26.347Z,12.68
2017-10-13T04:03:52.521Z,12.67
2017-10-13T04:04:18.663Z,12.58
2017-10-13T04:04:44.817Z,12.73
2017-10-13T04:05:10.956Z,12.55
2017-10-13T04:05:37.100Z,12.65
2017-10-13T04:06:03.239Z,12.64
2017-10-13T04:06:29.392Z,12.67
2017-10-13T04:06:55.536Z,12.68
2017-10-13T04:07:21.681Z,12.57
2017-10-13T04:07:47.820Z,12.61
2017-10-13T04:08:13.972Z,12.62
2017-10-13T04:08:40.117Z,12.62
2017-10-13T04:09:06.267Z,12.58
2017-10-13T04:09:32.415Z,12.57
2017-10-13T04:09:58.560Z,12.64
2017-10-13T04:10:24.710Z,12.62
2017-10-13T04:10:50.852Z,12.68
2017-10-13T04:11:17.003Z,12.7
2017-10-13T04:11:43.157Z,12.72
2017-10-13T04:12:09.317Z,12.72
2017-10-13T04:12:35.469Z,12.54
2017-10-13T04:13:01.614Z,12.73
2017-10-13T04:13:27.761Z,12.68
2017-10-13T04:13:53.921Z,12.64
2017-10-13T04:14:20.059Z,12.62
2017-10-13T04:14:46.205Z,12.72
2017-10-13T04:15:12.354Z,12.65
2017-10-13T04:15:38.497Z,12.68
2017-10-13T04:16:04.640Z,12.54
2017-10-13T04:16:30.815Z,12.49
2017-10-13T04:16:56.959Z,12.53
2017-10-13T04:17:23.101Z,12.57
2017-10-13T04:17:49.247Z,12.5
2017-10-13T04:18:15.387Z,12.58
2017-10-13T04:18:41.535Z,12.55
2017-10-13T04:19:07.677Z,12.55
2017-10-13T04:19:33.817Z,12.53
2017-10-13T04:19:59.970Z,12.58
2017-10-13T04:20:26.109Z,12.47
2017-10-13T04:20:52.283Z,12.53
2017-10-13T04:21:18.433Z,12.46
2017-10-13T04:21:44.581Z,12.55
2017-10-13T04:22:10.726Z,12.49
2017-10-13T04:22:36.875Z,12.47
2017-10-13T04:23:03.025Z,12.46
2017-10-13T04:23:29.172Z,12.53
2017-10-13T04:23:55.321Z,12.53
2017-10-13T04:24:21.463Z,12.5
2017-10-13T04:24:47.605Z,12.47
2017-10-13T04:25:13.757Z,12.58
2017-10-13T04:25:39.930Z,12.54
2017-10-13T04:26:06.066Z,12.55
2017-10-13T04:26:32.219Z,12.7
2017-10-13T04:26:58.360Z,12.49
2017-10-13T04:27:24.510Z,12.57
2017-10-13T04:27:50.660Z,12.55
2017-10-13T04:28:16.802Z,12.64
2017-10-13T04:28:42.948Z,12.58
2017-10-13T04:29:09.090Z,12.57
2017-10-13T04:29:35.242Z,12.62
2017-10-13T04:30:01.381Z,12.64
2017-10-13T04:30:27.530Z,12.61
2017-10-13T04:30:53.666Z,12.7
2017-10-13T04:31:19.811Z,12.55
2017-10-13T04:31:45.960Z,12.65
2017-10-13T04:32:12.102Z,12.6
2017-10-13T04:32:38.254Z,12.68
2017-10-13T04:33:04.398Z,12.72
2017-10-13T04:33:30.538Z,12.6
2017-10-13T04:33:56.689Z,12.61
2017-10-13T04:34:22.826Z,12.57
2017-10-13T04:34:48.969Z,12.61
2017-10-13T04:35:15.123Z,12.67
2017-10-13T04:35:41.267Z,12.57
2017-10-13T04:36:07.415Z,12.49
2017-10-13T04:36:33.562Z,12.47
2017-10-13T04:36:59.704Z,12.4
2017-10-13T04:37:25.855Z,12.4
2017-10-13T04:37:51.991Z,12.45
2017-10-13T04:38:18.140Z,12.47
2017-10-13T04:38:44.272Z,12.36
2017-10-13T04:39:10.418Z,12.47
2017-10-13T04:39:36.562Z,12.47
2017-10-13T04:40:02.716Z,12.42
2017-10-13T04:40:28.861Z,12.46
2017-10-13T04:40:55.013Z,12.47
2017-10-13T04:41:21.156Z,12.49
2017-10-13T04:41:47.298Z,12.5
2017-10-13T04:42:13.443Z,12.45
2017-10-13T04:42:39.585Z,12.5
2017-10-13T04:43:05.726Z,12.47
2017-10-13T04:43:31.897Z,12.45
2017-10-13T04:43:58.051Z,12.45
2017-10-13T04:44:24.195Z,12.4
2017-10-13T04:44:50.344Z,12.39
2017-10-13T04:45:16.499Z,12.35
2017-10-13T04:45:42.640Z,12.32
2017-10-13T04:46:08.806Z,12.32
2017-10-13T04:46:34.958Z,12.32
2017-10-13T04:47:01.103Z,12.36
2017-10-13T04:47:27.248Z,12.35
2017-10-13T04:47:53.399Z,12.35
2017-10-13T04:48:19.542Z,12.37
2017-10-13T04:48:45.715Z,12.45
2017-10-13T04:49:11.865Z,12.53
2017-10-13T04:49:38.011Z,12.43
2017-10-13T04:50:04.154Z,12.46
2017-10-13T04:50:30.306Z,12.43
2017-10-13T04:50:56.452Z,12.46
2017-10-13T04:51:22.593Z,12.47
2017-10-13T04:51:48.748Z,12.42
2017-10-13T04:52:14.916Z,12.46
2017-10-13T04:52:41.074Z,12.53
2017-10-13T04:53:07.245Z,12.47
2017-10-13T04:53:33.383Z,12.47
2017-10-13T04:53:59.556Z,12.47
2017-10-13T04:54:25.697Z,12.57
2017-10-13T04:54:51.846Z,12.46
2017-10-13T04:55:18.019Z,12.53
2017-10-13T04:55:44.159Z,12.53
2017-10-13T04:56:10.327Z,12.54
2017-10-13T04:56:36.479Z,12.54
2017-10-13T04:57:02.622Z,12.49
2017-10-13T04:57:28.761Z,12.46
2017-10-13T04:57:54.919Z,12.46
2017-10-13T04:58:21.061Z,12.46
2017-10-13T04:58:47.209Z,12.39
2017-10-13T04:59:13.357Z,12.45
2017-10-13T04:59:39.505Z,12.45
2017-10-13T05:00:05.671Z,12.37
2017-10-13T05:00:31.825Z,12.47
2017-10-13T05:00:57.961Z,12.47
2017-10-13T05:01:24.108Z,12.53
2017-10-13T05:01:50.279Z,12.45
2017-10-13T05:02:16.419Z,12.49
2017-10-13T05:02:42.564Z,12.53
2017-10-13T05:03:08.717Z,12.5
2017-10-13T05:03:34.849Z,12.54
2017-10-13T05:04:00.993Z,12.49
2017-10-13T05:04:27.133Z,12.53
2017-10-13T05:04:53.294Z,12.5
2017-10-13T05:05:19.435Z,12.45
2017-10-13T05:05:45.576Z,12.49
2017-10-13T05:06:11.720Z,12.43
2017-10-13T05:06:37.871Z,12.45
2017-10-13T05:07:04.010Z,12.47
2017-10-13T05:07:30.157Z,12.42
2017-10-13T05:07:56.304Z,12.42
2017-10-13T05:08:22.453Z,12.45
2017-10-13T05:08:48.593Z,12.47
2017-10-13T05:09:14.745Z,12.42
2017-10-13T05:09:40.891Z,12.4
2017-10-13T05:10:07.030Z,12.42
2017-10-13T05:10:33.201Z,12.4
2017-10-13T05:10:59.347Z,12.43
2017-10-13T05:11:25.488Z,12.4
2017-10-13T05:11:51.638Z,12.39
2017-10-13T05:12:17.783Z,12.42
2017-10-13T05:12:43.929Z,12.47
2017-10-13T05:13:10.109Z,12.47
2017-10-13T05:13:36.246Z,12.45
2017-10-13T05:14:02.391Z,12.47
2017-10-13T05:14:28.537Z,12.47
2017-10-13T05:14:54.687Z,12.42
2017-10-13T05:15:20.826Z,12.45
2017-10-13T05:15:46.971Z,12.5
2017-10-13T05:16:13.121Z,12.43
2017-10-13T05:16:39.262Z,12.47
2017-10-13T05:17:05.412Z,12.46
2017-10-13T05:17:31.551Z,12.53
2017-10-13T05:17:57.698Z,12.47
2017-10-13T05:18:23.843Z,12.5
2017-10-13T05:18:49.988Z,12.53
2017-10-13T05:19:16.134Z,12.46
2017-10-13T05:19:42.278Z,12.54
2017-10-13T05:20:08.429Z,12.47
2017-10-13T05:20:34.571Z,12.53
2017-10-13T05:21:00.721Z,12.58
2017-10-13T05:21:26.869Z,12.55
2017-10-13T05:21:53.015Z,12.53
2017-10-13T05:22:19.158Z,12.58
2017-10-13T05:22:45.304Z,12.64
2017-10-13T05:23:11.455Z,12.55
2017-10-13T05:23:37.597Z,12.61
2017-10-13T05:24:03.749Z,12.64
2017-10-13T05:24:29.891Z,12.64
2017-10-13T05:24:56.044Z,12.58
2017-10-13T05:25:22.193Z,12.62
2017-10-13T05:25:48.333Z,12.7
2017-10-13T05:26:14.486Z,12.75
2017-10-13T05:26:40.625Z,12.67
2017-10-13T05:27:06.776Z,12.6
2017-10-13T05:27:32.915Z,12.55
2017-10-13T05:27:59.063Z,12.57
2017-10-13T05:28:25.210Z,12.73
2017-10-13T05:28:51.360Z,12.6
2017-10-13T05:29:17.500Z,12.68
2017-10-13T05:29:43.646Z,12.65
2017-10-13T05:30:09.791Z,12.68
2017-10-13T05:30:35.955Z,12.61
2017-10-13T05:31:02.103Z,12.75
2017-10-13T05:31:28.283Z,12.72
2017-10-13T05:31:54.424Z,12.79
2017-10-13T05:32:20.572Z,12.82
2017-10-13T05:32:46.721Z,12.85
2017-10-13T05:33:12.861Z,12.82
2017-10-13T05:33:39.010Z,12.85
2017-10-13T05:34:05.148Z,12.7
2017-10-13T05:34:31.305Z,12.65
2017-10-13T05:34:57.449Z,12.68
2017-10-13T05:35:23.591Z,12.72
2017-10-13T05:35:49.728Z,12.75
2017-10-13T05:36:15.876Z,12.78
2017-10-13T05:36:42.026Z,12.82
2017-10-13T05:37:08.171Z,12.78
2017-10-13T05:37:34.320Z,12.82
2017-10-13T05:38:00.467Z,12.8
2017-10-13T05:38:26.618Z,12.95
2017-10-13T05:38:52.765Z,12.94
2017-10-13T05:39:18.910Z,12.9
2017-10-13T05:39:45.048Z,13.03
2017-10-13T05:40:11.197Z,13.01
2017-10-13T05:40:37.349Z,12.93
2017-10-13T05:41:03.492Z,12.97
2017-10-13T05:41:29.631Z,12.98
2017-10-13T05:41:55.785Z,12.91
2017-10-13T05:42:21.927Z,12.98